Terminal Aerodrome Forecast
Issued by NWS Omaha/Valley, NE

Home | Current Version | Previous Version | Graphics & Text | Print | Product List | Glossary On
Versions: 1 2 3 4 5 6 7 8 9 10 11 12 13 14 15 16 17
000
FTUS43 KOAX 231204 AAA
TAFOFK
TAF AMD
KOFK 231204Z 2312/2412 16012KT P6SM VCSH SCT025 OVC090
      TEMPO 2313/2316 5SM TSRA BKN025 OVC040CB
     FM231800 17015G23KT P6SM BKN100
     FM232100 17015G23KT P6SM BKN040
     FM240000 17013KT P6SM BKN090
     FM240500 22007KT P6SM SCT090 SCT250=

USA.gov is the U.S. government's official web portal to all federal, state and local government web resources and services.